<?xml version="1.0" encoding="UTF-8" standalone="no" ?>
<gpx xmlns="http://www.topografix.com/GPX/1/1" xmlns:xsi="http://www.w3.org/2001/XMLSchema-instance" xsi:schemaLocation="http://www.topografix.com/GPX/1/1 http://www.topografix.com/GPX/1/1/gpx.xsd" version="1.1" creator="VisuGPX - https://www.visugpx.com">
  <metadata>
    <name>GTP Octobre 2020 AM</name>
  </metadata>
  <trk>
    <name><![CDATA[2020-10-10 12:01:37]]></name>
    <trkseg>
      <trkpt lat="48.7441" lon="1.94879">
        <ele>167.33</ele>
        <time>2020-10-10T07:19:14Z</time>
      </trkpt>
      <trkpt lat="48.7434" lon="1.94905">
        <ele>166.3</ele>
        <time>2020-10-10T07:21:31Z</time>
      </trkpt>
      <trkpt lat="48.7424" lon="1.94863">
        <ele>164.59</ele>
        <time>2020-10-10T07:23:07Z</time>
      </trkpt>
      <trkpt lat="48.7415" lon="1.94824">
        <ele>163.29</ele>
        <time>2020-10-10T07:24:29Z</time>
      </trkpt>
      <trkpt lat="48.74067" lon="1.94825">
        <ele>161.86</ele>
        <time>2020-10-10T07:25:44Z</time>
      </trkpt>
      <trkpt lat="48.73978" lon="1.94791">
        <ele>161.33</ele>
        <time>2020-10-10T07:27:05Z</time>
      </trkpt>
      <trkpt lat="48.73921" lon="1.94888">
        <ele>160.89</ele>
        <time>2020-10-10T07:28:22Z</time>
      </trkpt>
      <trkpt lat="48.73943" lon="1.95047">
        <ele>160.9</ele>
        <time>2020-10-10T07:29:56Z</time>
      </trkpt>
      <trkpt lat="48.73978" lon="1.95187">
        <ele>161.41</ele>
        <time>2020-10-10T07:31:15Z</time>
      </trkpt>
      <trkpt lat="48.73988" lon="1.95325">
        <ele>161.81</ele>
        <time>2020-10-10T07:32:31Z</time>
      </trkpt>
      <trkpt lat="48.74013" lon="1.95455">
        <ele>162.05</ele>
        <time>2020-10-10T07:33:54Z</time>
      </trkpt>
      <trkpt lat="48.7402" lon="1.95572">
        <ele>162.79</ele>
        <time>2020-10-10T07:35:33Z</time>
      </trkpt>
      <trkpt lat="48.73961" lon="1.9575">
        <ele>163.83</ele>
        <time>2020-10-10T07:37:29Z</time>
      </trkpt>
      <trkpt lat="48.73896" lon="1.95898">
        <ele>163.8</ele>
        <time>2020-10-10T07:39:07Z</time>
      </trkpt>
      <trkpt lat="48.73858" lon="1.96048">
        <ele>163.36</ele>
        <time>2020-10-10T07:40:44Z</time>
      </trkpt>
      <trkpt lat="48.73817" lon="1.96174">
        <ele>162.26</ele>
        <time>2020-10-10T07:42:26Z</time>
      </trkpt>
      <trkpt lat="48.73777" lon="1.96298">
        <ele>161.47</ele>
        <time>2020-10-10T07:43:35Z</time>
      </trkpt>
      <trkpt lat="48.73735" lon="1.96421">
        <ele>160.71</ele>
        <time>2020-10-10T07:44:44Z</time>
      </trkpt>
      <trkpt lat="48.73772" lon="1.96498">
        <ele>160.72</ele>
        <time>2020-10-10T07:45:58Z</time>
      </trkpt>
      <trkpt lat="48.73843" lon="1.96575">
        <ele>159.88</ele>
        <time>2020-10-10T07:47:11Z</time>
      </trkpt>
      <trkpt lat="48.739" lon="1.96659">
        <ele>159.36</ele>
        <time>2020-10-10T07:48:18Z</time>
      </trkpt>
      <trkpt lat="48.73956" lon="1.96753">
        <ele>158.28</ele>
        <time>2020-10-10T07:49:30Z</time>
      </trkpt>
      <trkpt lat="48.74012" lon="1.96845">
        <ele>157.01</ele>
        <time>2020-10-10T07:50:41Z</time>
      </trkpt>
      <trkpt lat="48.74041" lon="1.96958">
        <ele>157.22</ele>
        <time>2020-10-10T07:51:51Z</time>
      </trkpt>
      <trkpt lat="48.74065" lon="1.97072">
        <ele>156.38</ele>
        <time>2020-10-10T07:52:52Z</time>
      </trkpt>
      <trkpt lat="48.74067" lon="1.97198">
        <ele>155.97</ele>
        <time>2020-10-10T07:53:54Z</time>
      </trkpt>
      <trkpt lat="48.74039" lon="1.97316">
        <ele>155.14</ele>
        <time>2020-10-10T07:54:58Z</time>
      </trkpt>
      <trkpt lat="48.73976" lon="1.97416">
        <ele>154.74</ele>
        <time>2020-10-10T07:56:13Z</time>
      </trkpt>
      <trkpt lat="48.73954" lon="1.97407">
        <ele>154.66</ele>
        <time>2020-10-10T07:56:35Z</time>
      </trkpt>
      <trkpt lat="48.73934" lon="1.97396">
        <ele>155.16</ele>
        <time>2020-10-10T07:57:04Z</time>
      </trkpt>
      <trkpt lat="48.73844" lon="1.97377">
        <ele>155.61</ele>
        <time>2020-10-10T07:58:14Z</time>
      </trkpt>
      <trkpt lat="48.73753" lon="1.97349">
        <ele>156.54</ele>
        <time>2020-10-10T07:59:31Z</time>
      </trkpt>
      <trkpt lat="48.73667" lon="1.97298">
        <ele>156.76</ele>
        <time>2020-10-10T08:00:46Z</time>
      </trkpt>
      <trkpt lat="48.73584" lon="1.97241">
        <ele>155.99</ele>
        <time>2020-10-10T08:02:01Z</time>
      </trkpt>
      <trkpt lat="48.73497" lon="1.9721">
        <ele>154.94</ele>
        <time>2020-10-10T08:03:14Z</time>
      </trkpt>
      <trkpt lat="48.73407" lon="1.97194">
        <ele>154.58</ele>
        <time>2020-10-10T08:04:29Z</time>
      </trkpt>
      <trkpt lat="48.73319" lon="1.97184">
        <ele>153.48</ele>
        <time>2020-10-10T08:05:41Z</time>
      </trkpt>
      <trkpt lat="48.73231" lon="1.97204">
        <ele>151.12</ele>
        <time>2020-10-10T08:06:56Z</time>
      </trkpt>
      <trkpt lat="48.7314" lon="1.97232">
        <ele>151.28</ele>
        <time>2020-10-10T08:08:10Z</time>
      </trkpt>
      <trkpt lat="48.73053" lon="1.9727">
        <ele>150.79</ele>
        <time>2020-10-10T08:09:24Z</time>
      </trkpt>
      <trkpt lat="48.72975" lon="1.97341">
        <ele>149.4</ele>
        <time>2020-10-10T08:10:41Z</time>
      </trkpt>
      <trkpt lat="48.72895" lon="1.97444">
        <ele>149.49</ele>
        <time>2020-10-10T08:12:09Z</time>
      </trkpt>
      <trkpt lat="48.72806" lon="1.97426">
        <ele>150.28</ele>
        <time>2020-10-10T08:13:19Z</time>
      </trkpt>
      <trkpt lat="48.72738" lon="1.97389">
        <ele>150.77</ele>
        <time>2020-10-10T08:14:17Z</time>
      </trkpt>
      <trkpt lat="48.72733" lon="1.97368">
        <ele>150.95</ele>
        <time>2020-10-10T08:15:21Z</time>
      </trkpt>
      <trkpt lat="48.72726" lon="1.97366">
        <ele>150.93</ele>
        <time>2020-10-10T08:15:31Z</time>
      </trkpt>
      <trkpt lat="48.72667" lon="1.97308">
        <ele>151.16</ele>
        <time>2020-10-10T08:16:40Z</time>
      </trkpt>
      <trkpt lat="48.72597" lon="1.97237">
        <ele>150.89</ele>
        <time>2020-10-10T08:17:49Z</time>
      </trkpt>
      <trkpt lat="48.72525" lon="1.97164">
        <ele>149.87</ele>
        <time>2020-10-10T08:19:00Z</time>
      </trkpt>
      <trkpt lat="48.72522" lon="1.97034">
        <ele>148.04</ele>
        <time>2020-10-10T08:20:17Z</time>
      </trkpt>
      <trkpt lat="48.72522" lon="1.96898">
        <ele>148.84</ele>
        <time>2020-10-10T08:21:44Z</time>
      </trkpt>
      <trkpt lat="48.72519" lon="1.96892">
        <ele>149.23</ele>
        <time>2020-10-10T08:21:50Z</time>
      </trkpt>
      <trkpt lat="48.72487" lon="1.96833">
        <ele>149.96</ele>
        <time>2020-10-10T08:22:36Z</time>
      </trkpt>
      <trkpt lat="48.72459" lon="1.96744">
        <ele>151.01</ele>
        <time>2020-10-10T08:23:27Z</time>
      </trkpt>
      <trkpt lat="48.72523" lon="1.96405">
        <ele>150.56</ele>
        <time>2020-10-10T08:31:48Z</time>
      </trkpt>
      <trkpt lat="48.72502" lon="1.96295">
        <ele>146.43</ele>
        <time>2020-10-10T08:32:56Z</time>
      </trkpt>
      <trkpt lat="48.72463" lon="1.96128">
        <ele>127.42</ele>
        <time>2020-10-10T08:35:03Z</time>
      </trkpt>
      <trkpt lat="48.72446" lon="1.95944">
        <ele>116.33</ele>
        <time>2020-10-10T08:36:54Z</time>
      </trkpt>
      <trkpt lat="48.72428" lon="1.95864">
        <ele>115.53</ele>
        <time>2020-10-10T08:37:42Z</time>
      </trkpt>
      <trkpt lat="48.72445" lon="1.9574">
        <ele>108.9</ele>
        <time>2020-10-10T08:40:31Z</time>
      </trkpt>
      <trkpt lat="48.72392" lon="1.95647">
        <ele>94.22</ele>
        <time>2020-10-10T08:42:06Z</time>
      </trkpt>
      <trkpt lat="48.72379" lon="1.95621">
        <ele>93.79</ele>
        <time>2020-10-10T08:42:29Z</time>
      </trkpt>
      <trkpt lat="48.72376" lon="1.95528">
        <ele>93.88</ele>
        <time>2020-10-10T08:44:13Z</time>
      </trkpt>
      <trkpt lat="48.72387" lon="1.95427">
        <ele>95.87</ele>
        <time>2020-10-10T08:45:34Z</time>
      </trkpt>
      <trkpt lat="48.7247" lon="1.95367">
        <ele>97.14</ele>
        <time>2020-10-10T08:46:54Z</time>
      </trkpt>
      <trkpt lat="48.72548" lon="1.95294">
        <ele>97.19</ele>
        <time>2020-10-10T08:48:13Z</time>
      </trkpt>
      <trkpt lat="48.72629" lon="1.95246">
        <ele>96.46</ele>
        <time>2020-10-10T08:49:29Z</time>
      </trkpt>
      <trkpt lat="48.72718" lon="1.95206">
        <ele>98.33</ele>
        <time>2020-10-10T08:50:48Z</time>
      </trkpt>
      <trkpt lat="48.72797" lon="1.95147">
        <ele>99.06</ele>
        <time>2020-10-10T08:52:02Z</time>
      </trkpt>
      <trkpt lat="48.72861" lon="1.95088">
        <ele>100.45</ele>
        <time>2020-10-10T08:53:10Z</time>
      </trkpt>
      <trkpt lat="48.72893" lon="1.95046">
        <ele>102.19</ele>
        <time>2020-10-10T08:54:07Z</time>
      </trkpt>
      <trkpt lat="48.72924" lon="1.95002">
        <ele>105.18</ele>
        <time>2020-10-10T08:54:53Z</time>
      </trkpt>
      <trkpt lat="48.72938" lon="1.94988">
        <ele>105.6</ele>
        <time>2020-10-10T08:55:20Z</time>
      </trkpt>
      <trkpt lat="48.73006" lon="1.9493">
        <ele>103.63</ele>
        <time>2020-10-10T08:56:53Z</time>
      </trkpt>
      <trkpt lat="48.73033" lon="1.94894">
        <ele>104.18</ele>
        <time>2020-10-10T08:57:28Z</time>
      </trkpt>
      <trkpt lat="48.73098" lon="1.94795">
        <ele>107.3</ele>
        <time>2020-10-10T08:58:48Z</time>
      </trkpt>
      <trkpt lat="48.73165" lon="1.94701">
        <ele>111.18</ele>
        <time>2020-10-10T09:00:03Z</time>
      </trkpt>
      <trkpt lat="48.73229" lon="1.94609">
        <ele>109.24</ele>
        <time>2020-10-10T09:01:18Z</time>
      </trkpt>
      <trkpt lat="48.73283" lon="1.94497">
        <ele>108.41</ele>
        <time>2020-10-10T09:02:37Z</time>
      </trkpt>
      <trkpt lat="48.73348" lon="1.94375">
        <ele>108.73</ele>
        <time>2020-10-10T09:04:13Z</time>
      </trkpt>
      <trkpt lat="48.73414" lon="1.94271">
        <ele>109.82</ele>
        <time>2020-10-10T09:05:30Z</time>
      </trkpt>
      <trkpt lat="48.73468" lon="1.94163">
        <ele>111.84</ele>
        <time>2020-10-10T09:06:48Z</time>
      </trkpt>
      <trkpt lat="48.735" lon="1.94117">
        <ele>113.46</ele>
        <time>2020-10-10T09:07:36Z</time>
      </trkpt>
      <trkpt lat="48.73507" lon="1.94106">
        <ele>113.67</ele>
        <time>2020-10-10T09:07:50Z</time>
      </trkpt>
      <trkpt lat="48.73577" lon="1.94005">
        <ele>114.88</ele>
        <time>2020-10-10T09:09:18Z</time>
      </trkpt>
      <trkpt lat="48.73662" lon="1.93907">
        <ele>117.93</ele>
        <time>2020-10-10T09:11:01Z</time>
      </trkpt>
      <trkpt lat="48.7371" lon="1.93764">
        <ele>118.5</ele>
        <time>2020-10-10T09:12:38Z</time>
      </trkpt>
      <trkpt lat="48.73732" lon="1.93593">
        <ele>120.04</ele>
        <time>2020-10-10T09:14:28Z</time>
      </trkpt>
      <trkpt lat="48.73766" lon="1.9351">
        <ele>120.81</ele>
        <time>2020-10-10T09:15:32Z</time>
      </trkpt>
      <trkpt lat="48.73794" lon="1.9348">
        <ele>121</ele>
        <time>2020-10-10T09:16:08Z</time>
      </trkpt>
      <trkpt lat="48.73889" lon="1.93449">
        <ele>122.41</ele>
        <time>2020-10-10T09:17:29Z</time>
      </trkpt>
      <trkpt lat="48.73969" lon="1.93326">
        <ele>126.44</ele>
        <time>2020-10-10T09:19:07Z</time>
      </trkpt>
      <trkpt lat="48.73985" lon="1.93305">
        <ele>127.69</ele>
        <time>2020-10-10T09:19:26Z</time>
      </trkpt>
      <trkpt lat="48.74037" lon="1.93252">
        <ele>130.54</ele>
        <time>2020-10-10T09:20:24Z</time>
      </trkpt>
      <trkpt lat="48.74149" lon="1.93251">
        <ele>129.28</ele>
        <time>2020-10-10T09:22:06Z</time>
      </trkpt>
      <trkpt lat="48.74199" lon="1.93156">
        <ele>134.12</ele>
        <time>2020-10-10T09:23:46Z</time>
      </trkpt>
      <trkpt lat="48.74218" lon="1.9301">
        <ele>140.62</ele>
        <time>2020-10-10T09:25:18Z</time>
      </trkpt>
      <trkpt lat="48.74256" lon="1.92884">
        <ele>145.69</ele>
        <time>2020-10-10T09:26:41Z</time>
      </trkpt>
      <trkpt lat="48.74258" lon="1.9288">
        <ele>145.89</ele>
        <time>2020-10-10T09:26:48Z</time>
      </trkpt>
      <trkpt lat="48.74262" lon="1.92871">
        <ele>146.55</ele>
        <time>2020-10-10T09:29:43Z</time>
      </trkpt>
      <trkpt lat="48.74291" lon="1.92807">
        <ele>147.59</ele>
        <time>2020-10-10T09:30:43Z</time>
      </trkpt>
      <trkpt lat="48.7431" lon="1.9278">
        <ele>148.12</ele>
        <time>2020-10-10T09:31:10Z</time>
      </trkpt>
      <trkpt lat="48.74342" lon="1.92762">
        <ele>148.96</ele>
        <time>2020-10-10T09:31:43Z</time>
      </trkpt>
      <trkpt lat="48.74363" lon="1.92765">
        <ele>148.74</ele>
        <time>2020-10-10T09:32:06Z</time>
      </trkpt>
      <trkpt lat="48.7445" lon="1.92779">
        <ele>147.73</ele>
        <time>2020-10-10T09:33:25Z</time>
      </trkpt>
      <trkpt lat="48.74538" lon="1.92795">
        <ele>147.9</ele>
        <time>2020-10-10T09:34:44Z</time>
      </trkpt>
      <trkpt lat="48.74628" lon="1.92813">
        <ele>146.93</ele>
        <time>2020-10-10T09:36:03Z</time>
      </trkpt>
      <trkpt lat="48.74695" lon="1.92905">
        <ele>146.8</ele>
        <time>2020-10-10T09:37:21Z</time>
      </trkpt>
      <trkpt lat="48.74715" lon="1.93028">
        <ele>147.05</ele>
        <time>2020-10-10T09:38:43Z</time>
      </trkpt>
      <trkpt lat="48.74668" lon="1.93165">
        <ele>146.88</ele>
        <time>2020-10-10T09:40:14Z</time>
      </trkpt>
      <trkpt lat="48.7464" lon="1.93299">
        <ele>146.66</ele>
        <time>2020-10-10T09:41:34Z</time>
      </trkpt>
      <trkpt lat="48.7463" lon="1.93448">
        <ele>146.75</ele>
        <time>2020-10-10T09:42:58Z</time>
      </trkpt>
      <trkpt lat="48.74606" lon="1.93585">
        <ele>146.85</ele>
        <time>2020-10-10T09:44:19Z</time>
      </trkpt>
      <trkpt lat="48.74599" lon="1.93624">
        <ele>146.72</ele>
        <time>2020-10-10T09:44:44Z</time>
      </trkpt>
      <trkpt lat="48.74584" lon="1.93683">
        <ele>146.94</ele>
        <time>2020-10-10T09:45:18Z</time>
      </trkpt>
      <trkpt lat="48.74552" lon="1.93856">
        <ele>147.08</ele>
        <time>2020-10-10T09:46:56Z</time>
      </trkpt>
      <trkpt lat="48.74486" lon="1.93985">
        <ele>147.95</ele>
        <time>2020-10-10T09:48:23Z</time>
      </trkpt>
      <trkpt lat="48.74475" lon="1.94112">
        <ele>149.22</ele>
        <time>2020-10-10T09:50:06Z</time>
      </trkpt>
      <trkpt lat="48.745" lon="1.94205">
        <ele>151.75</ele>
        <time>2020-10-10T09:51:07Z</time>
      </trkpt>
      <trkpt lat="48.74507" lon="1.94382">
        <ele>153.68</ele>
        <time>2020-10-10T09:55:45Z</time>
      </trkpt>
      <trkpt lat="48.74476" lon="1.94525">
        <ele>154.5</ele>
        <time>2020-10-10T09:57:12Z</time>
      </trkpt>
      <trkpt lat="48.74456" lon="1.94664">
        <ele>155.49</ele>
        <time>2020-10-10T09:58:34Z</time>
      </trkpt>
      <trkpt lat="48.74425" lon="1.948">
        <ele>156.23</ele>
        <time>2020-10-10T09:59:56Z</time>
      </trkpt>
      <trkpt lat="48.74424" lon="1.94864">
        <ele>156.25</ele>
        <time>2020-10-10T10:00:48Z</time>
      </trkpt>
    </trkseg>
  </trk>
</gpx>